createdAt,value
2022-12-29T00:01:23.697Z,1003.26
2022-12-29T00:16:24.255Z,1003.15
2022-12-29T00:31:24.919Z,1003.03
2022-12-29T00:46:26.020Z,1002.85
2022-12-29T01:01:27.286Z,1002.74
2022-12-29T01:16:28.241Z,1002.67
2022-12-29T01:31:29.853Z,1002.67
2022-12-29T01:46:31.444Z,1002.59
2022-12-29T02:01:35.150Z,1002.39
2022-12-29T02:16:35.995Z,1002.21
2022-12-29T02:31:37.601Z,1002.07
2022-12-29T02:46:38.677Z,1002.04
2022-12-29T03:01:39.535Z,1002.01
2022-12-29T03:16:39.924Z,1001.83
2022-12-29T03:31:40.304Z,1001.58
2022-12-29T03:46:41.316Z,1001.70
2022-12-29T04:01:42.582Z,1001.63
2022-12-29T04:16:43.177Z,1001.38
2022-12-29T04:31:45.778Z,1001.34
2022-12-29T04:46:46.798Z,1001.25
2022-12-29T05:01:47.497Z,1001.13
2022-12-29T05:16:48.539Z,1000.95
2022-12-29T05:31:49.729Z,1001.00
2022-12-29T05:46:50.308Z,1000.87
2022-12-29T06:01:51.124Z,1000.77
2022-12-29T06:16:51.506Z,1000.88
2022-12-29T06:31:52.904Z,1000.75
2022-12-29T06:46:53.681Z,1000.68
2022-12-29T07:01:54.681Z,1000.74
2022-12-29T07:16:55.576Z,1001.04
2022-12-29T07:31:56.181Z,1000.86
2022-12-29T07:46:58.019Z,1000.71
2022-12-29T08:02:00.514Z,1000.78
2022-12-29T08:17:00.921Z,1000.84
2022-12-29T08:32:02.056Z,1000.80
2022-12-29T08:47:03.145Z,1000.65
2022-12-29T09:02:04.001Z,1000.67
2022-12-29T09:17:04.345Z,1000.48
2022-12-29T09:32:07.820Z,1000.58
2022-12-29T09:47:08.716Z,1000.46
2022-12-29T10:02:09.346Z,1000.52
2022-12-29T10:17:10.383Z,1000.42
2022-12-29T10:32:11.499Z,1000.66
2022-12-29T10:47:12.095Z,1000.77
2022-12-29T11:02:13.013Z,1000.39
2022-12-29T11:17:14.809Z,1000.33
2022-12-29T11:32:16.053Z,1000.43
2022-12-29T11:47:16.738Z,1000.32
2022-12-29T12:02:17.376Z,1000.48
2022-12-29T12:17:17.764Z,1000.56
2022-12-29T12:32:18.416Z,1000.44
2022-12-29T12:47:19.020Z,1000.72
2022-12-29T13:02:19.947Z,1000.74
2022-12-29T13:17:20.235Z,1000.88
2022-12-29T13:32:20.548Z,1000.84
2022-12-29T13:47:21.775Z,1001.05
2022-12-29T14:02:22.862Z,1001.31
2022-12-29T14:17:23.918Z,1001.52
2022-12-29T14:32:24.544Z,1001.67
2022-12-29T14:47:26.044Z,1002.10
2022-12-29T15:02:26.599Z,1002.01
2022-12-29T15:17:27.553Z,1002.09
2022-12-29T15:32:27.668Z,1002.28
2022-12-29T15:47:28.366Z,1002.40
2022-12-29T16:02:29.117Z,1002.62
2022-12-29T16:17:29.467Z,1002.65
2022-12-29T16:32:30.896Z,1002.79
2022-12-29T16:47:30.911Z,1002.74
2022-12-29T17:02:31.763Z,1002.80
2022-12-29T17:17:33.244Z,1002.94
2022-12-29T17:32:34.356Z,1003.06
2022-12-29T17:47:35.130Z,1003.17
2022-12-29T18:02:36.037Z,1003.26
2022-12-29T18:17:37.467Z,1003.17
2022-12-29T18:32:37.903Z,1003.54
2022-12-29T18:47:38.997Z,1003.47
2022-12-29T19:02:39.292Z,1003.53
2022-12-29T19:17:39.513Z,1003.64
2022-12-29T19:32:40.031Z,1003.79
2022-12-29T19:47:41.185Z,1003.83
2022-12-29T20:02:42.429Z,1003.89
2022-12-29T20:18:12.449Z,1004.00
2022-12-29T20:32:48.487Z,1003.94
2022-12-29T20:47:50.086Z,1003.93
2022-12-29T21:02:51.505Z,1003.81
2022-12-29T21:17:52.425Z,1003.77
2022-12-29T21:32:53.495Z,1003.89
2022-12-29T21:47:55.110Z,1004.00
2022-12-29T22:02:56.474Z,1004.19
2022-12-29T22:17:57.319Z,1004.30
2022-12-29T22:32:58.985Z,1004.41
2022-12-29T22:48:00.094Z,1004.54
2022-12-29T23:03:00.846Z,1004.70
2022-12-29T23:18:01.834Z,1004.80
2022-12-29T23:33:02.949Z,1004.79
2022-12-29T23:48:03.525Z,1004.93
